createdAt,value
2019-01-21T00:00:05.985Z,82
2019-01-21T00:01:06.501Z,81.9
2019-01-21T00:02:06.400Z,82
2019-01-21T00:03:06.284Z,81
2019-01-21T00:11:12.519Z,79.6
2019-01-21T00:12:12.405Z,80.2
2019-01-21T00:13:12.305Z,80.4
2019-01-21T00:14:12.212Z,80.6
2019-01-21T00:15:12.125Z,80.7
2019-01-21T00:16:12.013Z,80.7
2019-01-21T00:17:11.904Z,80.7
2019-01-21T00:18:11.797Z,81
2019-01-21T00:19:11.735Z,80.9
2019-01-21T00:20:11.613Z,80.7
2019-01-21T00:21:11.976Z,80.6
2019-01-21T00:22:11.859Z,80.7
2019-01-21T00:23:11.763Z,80.8
2019-01-21T00:24:11.679Z,80.5
2019-01-21T00:25:11.579Z,80.2
2019-01-21T00:26:11.459Z,79.9
2019-01-21T00:27:11.354Z,79.9
2019-01-21T00:28:11.234Z,79.8
2019-01-21T00:29:11.105Z,79.7
2019-01-21T00:30:11.011Z,79.4
2019-01-21T00:31:11.334Z,79.5
2019-01-21T00:32:11.212Z,79.6
2019-01-21T00:33:11.103Z,79.6
2019-01-21T00:34:10.981Z,79.2
2019-01-21T00:35:10.873Z,79
2019-01-21T00:36:10.781Z,78.7
2019-01-21T00:37:10.662Z,78.9
2019-01-21T00:38:10.614Z,79.2
2019-01-21T00:39:10.506Z,79.5
2019-01-21T00:40:10.388Z,79.3
2019-01-21T00:41:10.711Z,79.3
2019-01-21T00:42:10.603Z,79.3
2019-01-21T00:43:10.493Z,79
2019-01-21T00:44:10.379Z,79.2
2019-01-21T00:45:10.266Z,79.6
2019-01-21T00:46:10.177Z,79.8
2019-01-21T00:47:10.072Z,80.1
2019-01-21T00:48:09.966Z,80.2
2019-01-21T00:49:09.851Z,80.2
2019-01-21T00:50:09.783Z,80.2
2019-01-21T00:51:10.109Z,79.3
2019-01-21T00:52:10.005Z,79.2
2019-01-21T00:53:09.893Z,79.2
2019-01-21T00:54:09.841Z,79.1
2019-01-21T00:55:09.729Z,79.4
2019-01-21T00:56:09.617Z,79.6
2019-01-21T00:57:09.537Z,79.1
2019-01-21T00:58:09.405Z,79
2019-01-21T00:59:09.301Z,79.4
2019-01-21T01:00:09.189Z,79.5
2019-01-21T01:01:09.561Z,79.6
2019-01-21T01:02:09.455Z,79.5
2019-01-21T01:03:09.355Z,79.4
2019-01-21T01:04:09.231Z,79.2
2019-01-21T01:05:09.129Z,79.4
2019-01-21T01:06:09.007Z,79.4
2019-01-21T01:07:08.883Z,79.8
2019-01-21T01:08:08.799Z,80.3
2019-01-21T01:09:08.694Z,79.8
2019-01-21T01:10:08.582Z,79.8
2019-01-21T01:11:08.879Z,80.3
2019-01-21T01:12:08.753Z,80.5
2019-01-21T01:13:08.625Z,80.3
2019-01-21T01:14:08.536Z,80.9
2019-01-21T01:15:08.410Z,81.3
2019-01-21T01:16:08.298Z,81.4
2019-01-21T01:17:08.229Z,81
2019-01-21T01:18:08.106Z,81
2019-01-21T01:19:08.007Z,80.6
2019-01-21T01:20:07.904Z,80.5
2019-01-21T01:21:08.199Z,80.7
2019-01-21T01:22:08.098Z,80.6
2019-01-21T01:23:07.985Z,80.6
2019-01-21T01:24:07.887Z,80.7
2019-01-21T01:25:07.847Z,80.7
2019-01-21T01:26:07.767Z,80.6
2019-01-21T01:27:07.663Z,80.1
2019-01-21T01:28:07.577Z,80
2019-01-21T01:29:07.460Z,80.1
2019-01-21T01:30:07.355Z,80.1
2019-01-21T01:31:07.658Z,80.1
2019-01-21T01:32:07.551Z,80
2019-01-21T01:33:07.451Z,79.4
2019-01-21T01:34:07.333Z,79.7
2019-01-21T01:35:07.211Z,80.6
2019-01-21T01:36:07.105Z,80.7
2019-01-21T01:37:07.001Z,81.5
2019-01-21T01:38:06.877Z,81.9
2019-01-21T01:39:06.761Z,81.8
2019-01-21T01:40:06.643Z,81.8
2019-01-21T01:41:06.952Z,82.3
2019-01-21T01:42:06.837Z,82.5
2019-01-21T01:43:07.580Z,82.5
2019-01-21T01:44:08.222Z,82.7
2019-01-21T01:45:08.133Z,82.1
2019-01-21T01:46:08.078Z,81.6
2019-01-21T01:47:08.006Z,81.8
2019-01-21T01:48:07.930Z,82
2019-01-21T01:49:07.877Z,81.6
2019-01-21T01:50:07.803Z,81.5
2019-01-21T01:51:08.215Z,81.6
2019-01-21T01:52:09.031Z,82
2019-01-21T01:53:09.731Z,81.8
2019-01-21T01:54:09.655Z,81.4
2019-01-21T01:55:09.583Z,81.7
2019-01-21T01:56:09.513Z,81.9
2019-01-21T01:57:09.433Z,81.8
2019-01-21T01:58:09.337Z,81.9
2019-01-21T01:59:09.261Z,81.5
2019-01-21T02:00:09.461Z,81.4
2019-01-21T02:01:09.847Z,80.9
2019-01-21T02:02:09.767Z,80.9
2019-01-21T02:03:09.689Z,80.9
2019-01-21T02:04:09.612Z,80.9
2019-01-21T02:05:09.551Z,81
2019-01-21T02:06:09.475Z,80.4
2019-01-21T02:07:09.399Z,80
2019-01-21T02:08:09.321Z,80.1
2019-01-21T02:09:10.271Z,80
2019-01-21T02:10:11.145Z,80.1
2019-01-21T02:11:11.520Z,80.1
2019-01-21T02:12:11.458Z,80.1
2019-01-21T02:13:11.398Z,79.9
2019-01-21T02:14:11.326Z,79.7
2019-01-21T02:15:11.253Z,79.6
2019-01-21T02:16:11.188Z,79.8
2019-01-21T02:17:11.166Z,80.2
2019-01-21T02:18:11.101Z,80.3
2019-01-21T02:19:11.605Z,79.3
2019-01-21T02:20:11.519Z,79.7
2019-01-21T02:21:11.886Z,80.5
2019-01-21T02:22:11.847Z,79.9
2019-01-21T02:31:12.208Z,77.6
2019-01-21T02:32:12.131Z,78.1
2019-01-21T02:33:12.095Z,77.8
2019-01-21T02:34:11.998Z,78.5
2019-01-21T02:35:12.852Z,79.4
2019-01-21T02:36:13.607Z,79.3
2019-01-21T02:37:13.528Z,79.8
2019-01-21T02:38:13.483Z,80.7
2019-01-21T02:39:13.424Z,80.6
2019-01-21T02:40:13.358Z,80.3
2019-01-21T02:41:13.726Z,80.2
2019-01-21T02:42:13.650Z,79.4
2019-01-21T02:43:15.422Z,79.3
2019-01-21T02:44:16.185Z,78.7
2019-01-21T02:51:16.043Z,76.8
2019-01-21T02:52:15.978Z,77.5
2019-01-21T02:53:15.911Z,77.8
2019-01-21T02:54:15.837Z,78.3
2019-01-21T02:55:15.780Z,78.7
2019-01-21T02:56:15.708Z,79.1
2019-01-21T02:57:15.650Z,79.3
2019-01-21T02:58:15.663Z,79.6
2019-01-21T02:59:15.597Z,79.2
2019-01-21T03:00:15.504Z,79.9
2019-01-21T03:01:16.624Z,79.8
2019-01-21T03:02:17.342Z,79.9
2019-01-21T03:03:17.260Z,80.2
2019-01-21T03:04:17.173Z,80.1
2019-01-21T03:05:17.094Z,80.1
2019-01-21T03:06:17.050Z,80.2
2019-01-21T03:07:16.986Z,81.2
2019-01-21T03:08:16.900Z,80.6
2019-01-21T03:09:16.812Z,80.9
2019-01-21T03:10:17.358Z,81.2
2019-01-21T03:11:18.832Z,81.5
2019-01-21T03:12:18.750Z,81.2
2019-01-21T03:13:18.680Z,80.4
2019-01-21T03:14:18.598Z,80.2
2019-01-21T03:15:18.521Z,80.5
2019-01-21T03:16:18.452Z,79.5
2019-01-21T03:17:18.423Z,79.7
2019-01-21T03:18:18.718Z,79.9
2019-01-21T03:19:18.642Z,80.1
2019-01-21T03:20:18.550Z,79.4
2019-01-21T03:21:18.908Z,79.8
2019-01-21T03:22:18.854Z,80.3
2019-01-21T03:23:18.776Z,80.9
2019-01-21T03:24:18.700Z,81.4
2019-01-21T03:25:18.684Z,81.4
2019-01-21T03:26:18.659Z,81.4
2019-01-21T03:27:19.256Z,80.6
2019-01-21T03:28:19.813Z,80.8
2019-01-21T03:29:19.758Z,80.6
2019-01-21T03:30:19.737Z,80.6
2019-01-21T03:31:20.176Z,80
2019-01-21T03:32:20.128Z,80.4
2019-01-21T03:33:20.124Z,81
2019-01-21T03:34:20.086Z,81
2019-01-21T03:35:20.078Z,80.3
2019-01-21T03:36:20.848Z,80.4
2019-01-21T03:37:21.600Z,81
2019-01-21T03:38:21.532Z,81.2
2019-01-21T03:39:21.464Z,81.2
2019-01-21T03:40:21.382Z,81.3
2019-01-21T03:41:23.000Z,81.5
2019-01-21T03:42:22.916Z,80.7
2019-01-21T03:43:22.856Z,80.4
2019-01-21T03:44:22.942Z,80.7
2019-01-21T03:45:22.879Z,80.9
2019-01-21T03:46:22.818Z,81.5
2019-01-21T03:47:22.742Z,82
2019-01-21T03:48:22.663Z,81.9
2019-01-21T03:49:22.644Z,81.8
2019-01-21T03:50:22.586Z,81.8
2019-01-21T03:51:23.028Z,81.7
2019-01-21T03:52:22.980Z,81.8
2019-01-21T03:53:23.753Z,82.1
2019-01-21T03:54:24.524Z,82.3
2019-01-21T03:55:24.422Z,82.3
2019-01-21T03:56:24.340Z,82.5
2019-01-21T03:57:24.272Z,81.9
2019-01-21T03:58:24.243Z,81.9
2019-01-21T03:59:24.168Z,82.4
2019-01-21T04:00:24.095Z,82.1
2019-01-21T04:01:24.528Z,82.5
2019-01-21T04:02:25.128Z,82.4
2019-01-21T04:03:26.025Z,82.4
2019-01-21T04:04:25.942Z,82.5
2019-01-21T04:05:25.912Z,82.5
2019-01-21T04:06:25.845Z,82.7
2019-01-21T04:07:25.960Z,82.8
2019-01-21T04:08:25.879Z,82.9
2019-01-21T04:09:25.804Z,83.2
2019-01-21T04:10:26.231Z,83.2
2019-01-21T04:11:26.679Z,83.3
2019-01-21T04:12:26.622Z,83.6
2019-01-21T04:13:26.564Z,83.7
2019-01-21T04:14:26.495Z,83.7
2019-01-21T04:15:26.446Z,83.8
2019-01-21T04:16:26.382Z,83.8
2019-01-21T04:17:26.461Z,83.9
2019-01-21T04:18:26.399Z,84
2019-01-21T04:19:27.236Z,84.1
2019-01-21T04:20:28.126Z,84.1
2019-01-21T04:21:28.514Z,84.5
2019-01-21T04:22:28.443Z,84.5
2019-01-21T04:23:28.392Z,84.4
2019-01-21T04:24:28.340Z,84.3
2019-01-21T04:25:28.250Z,84.7
2019-01-21T04:26:28.163Z,84.8
2019-01-21T04:27:28.073Z,85
2019-01-21T04:28:28.008Z,84.6
2019-01-21T04:29:27.937Z,84.7
2019-01-21T04:30:27.867Z,84.6
2019-01-21T04:31:28.264Z,84.8
2019-01-21T04:41:28.536Z,81.1
2019-01-21T04:42:28.476Z,81.4
2019-01-21T04:43:28.416Z,82.2
2019-01-21T04:44:28.334Z,82.3
2019-01-21T04:45:28.256Z,82.3
2019-01-21T04:46:28.213Z,82.3
2019-01-21T04:47:28.190Z,82.4
2019-01-21T04:48:33.806Z,82.6
2019-01-21T04:49:33.716Z,82.7
2019-01-21T04:50:33.627Z,82.6
2019-01-21T04:51:34.055Z,82.8
2019-01-21T04:52:33.982Z,82.9
2019-01-21T04:53:33.934Z,82.9
2019-01-21T04:54:34.827Z,82.8
2019-01-21T04:55:35.647Z,82.7
2019-01-21T04:56:35.616Z,82.7
2019-01-21T04:57:35.584Z,82.7
2019-01-21T04:58:35.517Z,82.7
2019-01-21T04:59:35.453Z,82.7
2019-01-21T05:00:35.379Z,82.8
2019-01-21T05:01:35.752Z,82.8
2019-01-21T05:02:36.140Z,82.9
2019-01-21T05:11:34.790Z,79.2
2019-01-21T05:12:34.726Z,79.8
2019-01-21T05:13:34.648Z,80
2019-01-21T05:14:34.603Z,80.2
2019-01-21T05:15:34.532Z,80.4
2019-01-21T05:16:34.439Z,80.4
2019-01-21T05:17:34.369Z,80.6
2019-01-21T05:18:42.052Z,80.8
2019-01-21T05:19:42.015Z,81.3
2019-01-21T05:20:42.719Z,81.5
2019-01-21T05:21:44.405Z,81.6
2019-01-21T05:22:44.338Z,81.8
2019-01-21T05:23:44.262Z,81.9
2019-01-21T05:24:44.221Z,81.9
2019-01-21T05:25:44.178Z,81.9
2019-01-21T05:26:44.108Z,82.1
2019-01-21T05:27:44.041Z,82.9
2019-01-21T05:28:44.359Z,82.3
2019-01-21T05:29:44.292Z,82.4
2019-01-21T05:30:44.229Z,82.6
2019-01-21T05:31:44.641Z,82.6
2019-01-21T05:32:44.595Z,81.9
2019-01-21T05:33:44.555Z,81.6
2019-01-21T05:41:44.096Z,80.1
2019-01-21T05:42:44.003Z,80.7
2019-01-21T05:43:43.895Z,80.7
2019-01-21T05:44:43.795Z,80.7
2019-01-21T05:45:43.684Z,80.9
2019-01-21T05:46:43.589Z,81.9
2019-01-21T05:47:43.483Z,81.3
2019-01-21T05:48:49.831Z,81.5
2019-01-21T05:49:49.766Z,81.8
2019-01-21T05:50:49.639Z,81.9
2019-01-21T05:51:49.993Z,81.8
2019-01-21T05:52:50.002Z,82.1
2019-01-21T06:01:48.211Z,79.3
2019-01-21T06:02:48.121Z,79.9
2019-01-21T06:03:48.027Z,80.2
2019-01-21T06:04:47.901Z,80.6
2019-01-21T06:05:47.789Z,80.8
2019-01-21T06:06:47.679Z,81
2019-01-21T06:07:47.603Z,81
2019-01-21T06:08:47.501Z,81.1
2019-01-21T06:09:47.400Z,81.3
2019-01-21T06:10:47.312Z,81.6
2019-01-21T06:11:47.593Z,81.5
2019-01-21T06:12:47.477Z,82
2019-01-21T06:13:47.400Z,82.1
2019-01-21T06:14:47.310Z,82.2
2019-01-21T06:15:47.195Z,82.1
2019-01-21T06:16:47.082Z,82.3
2019-01-21T06:17:46.964Z,82.3
2019-01-21T06:18:46.865Z,82.4
2019-01-21T06:19:46.789Z,82.5
2019-01-21T06:20:46.681Z,82.6
2019-01-21T06:21:47.027Z,82.6
2019-01-21T06:22:46.925Z,82.7
2019-01-21T06:23:46.829Z,82.1
2019-01-21T06:31:45.263Z,80.1
2019-01-21T06:32:45.120Z,80.9
2019-01-21T06:33:45.007Z,81
2019-01-21T06:34:44.899Z,81.3
2019-01-21T06:35:44.822Z,81.4
2019-01-21T06:36:44.752Z,81.8
2019-01-21T06:37:44.647Z,82
2019-01-21T06:38:44.527Z,82.1
2019-01-21T06:39:44.480Z,82.5
2019-01-21T06:40:44.358Z,82.7
2019-01-21T06:41:44.683Z,82.9
2019-01-21T06:42:44.567Z,83
2019-01-21T06:43:44.460Z,82.6
2019-01-21T06:44:44.355Z,83
2019-01-21T06:45:44.267Z,83.3
2019-01-21T06:46:44.177Z,83.4
2019-01-21T06:47:44.061Z,83.5
2019-01-21T06:48:43.945Z,83.6
2019-01-21T06:49:43.843Z,83.8
2019-01-21T06:50:43.735Z,83.8
2019-01-21T06:51:44.055Z,83.8
2019-01-21T06:52:43.941Z,84
2019-01-21T06:53:43.839Z,84.8
2019-01-21T06:54:43.733Z,84.2
2019-01-21T06:55:43.616Z,84.1
2019-01-21T06:56:48.225Z,84.3
2019-01-21T06:57:48.107Z,84.5
2019-01-21T06:58:47.982Z,84.4
2019-01-21T06:59:47.870Z,84.5
2019-01-21T07:00:47.731Z,84.5
2019-01-21T07:01:48.084Z,85.3
2019-01-21T07:02:47.968Z,84.4
2019-01-21T07:03:47.847Z,84.4
2019-01-21T07:04:47.750Z,84.4
2019-01-21T07:05:47.631Z,84.4
2019-01-21T07:06:47.541Z,84.5
2019-01-21T07:07:47.436Z,84.6
2019-01-21T07:08:47.323Z,84.5
2019-01-21T07:09:47.195Z,84.7
2019-01-21T07:10:47.077Z,85.1
2019-01-21T07:11:47.383Z,85.5
2019-01-21T07:12:48.604Z,85.6
2019-01-21T07:13:48.485Z,85.3
2019-01-21T07:14:48.379Z,85.2
2019-01-21T07:15:48.263Z,85.2
2019-01-21T07:16:48.155Z,85.8
2019-01-21T07:17:48.085Z,85.5
2019-01-21T07:18:47.969Z,85
2019-01-21T07:19:47.863Z,85.2
2019-01-21T07:20:47.777Z,85
2019-01-21T07:21:48.099Z,84.9
2019-01-21T07:22:47.990Z,84.9
2019-01-21T07:23:47.893Z,84.6
2019-01-21T07:24:47.801Z,84.1
2019-01-21T07:25:47.681Z,83.9
2019-01-21T07:26:47.584Z,83.8
2019-01-21T07:27:47.475Z,83.8
2019-01-21T07:28:47.381Z,83.6
2019-01-21T07:29:47.261Z,83.2
2019-01-21T07:30:47.129Z,83
2019-01-21T07:31:47.470Z,82.7
2019-01-21T07:32:47.351Z,83.5
2019-01-21T07:33:47.234Z,82.6
2019-01-21T07:34:47.150Z,82.4
2019-01-21T07:35:47.045Z,82.5
2019-01-21T07:36:46.943Z,82.6
2019-01-21T07:37:46.865Z,82.7
2019-01-21T07:38:46.737Z,82.7
2019-01-21T07:39:46.641Z,82.7
2019-01-21T07:40:46.523Z,83
2019-01-21T07:41:46.827Z,83.1
2019-01-21T07:42:46.725Z,83.1
2019-01-21T07:43:46.613Z,83
2019-01-21T07:44:46.485Z,82.9
2019-01-21T07:45:46.417Z,82.9
2019-01-21T07:46:46.307Z,82.7
2019-01-21T07:47:46.171Z,82.8
2019-01-21T07:48:46.070Z,82.7
2019-01-21T07:49:45.986Z,82.9
2019-01-21T07:50:45.882Z,82.9
2019-01-21T07:51:46.254Z,82.8
2019-01-21T07:52:46.135Z,83.1
2019-01-21T08:17:40.495Z,77.4
2019-01-21T08:21:40.002Z,77.6
2019-01-21T08:22:39.883Z,78.3
2019-01-21T08:23:39.792Z,78.4
2019-01-21T08:24:39.682Z,79
2019-01-21T08:25:39.567Z,79.2
2019-01-21T08:26:39.441Z,79.1
2019-01-21T08:27:39.341Z,79.4
2019-01-21T08:28:39.231Z,79.4
2019-01-21T08:29:39.140Z,79.6
2019-01-21T08:30:39.024Z,79.9
2019-01-21T08:31:39.339Z,80.1
2019-01-21T08:32:39.220Z,80.4
2019-01-21T08:33:39.165Z,80.7
2019-01-21T08:34:39.056Z,80.7
2019-01-21T08:35:38.964Z,81
2019-01-21T08:36:38.888Z,81.3
2019-01-21T08:37:38.770Z,81.7
2019-01-21T08:38:38.651Z,81.7
2019-01-21T08:39:38.571Z,81.8
2019-01-21T08:40:38.479Z,82
2019-01-21T08:41:38.799Z,82.3
2019-01-21T08:42:38.691Z,82.7
2019-01-21T08:43:38.596Z,82.7
2019-01-21T08:44:38.507Z,82.7
2019-01-21T08:45:38.391Z,82.8
2019-01-21T08:46:38.297Z,83
2019-01-21T08:47:38.213Z,83
2019-01-21T08:48:38.092Z,83
2019-01-21T08:49:37.963Z,83.1
2019-01-21T08:50:37.854Z,83.2
2019-01-21T08:51:38.162Z,83.1
2019-01-21T08:52:38.048Z,83.6
2019-01-21T08:53:37.949Z,84
2019-01-21T08:54:37.884Z,84.1
2019-01-21T08:55:37.791Z,84.3
2019-01-21T08:56:37.667Z,84.1
2019-01-21T08:57:37.548Z,84.5
2019-01-21T08:58:37.431Z,84.4
2019-01-21T08:59:37.319Z,84.3
2019-01-21T09:00:37.242Z,84.4
2019-01-21T09:01:37.562Z,84.3
2019-01-21T09:02:37.447Z,84.3
2019-01-21T09:03:37.327Z,83.5
2019-01-21T09:11:37.972Z,80.5
2019-01-21T09:12:37.874Z,81.2
2019-01-21T09:13:37.763Z,81.5
2019-01-21T09:14:37.636Z,81.5
2019-01-21T09:15:37.514Z,81.5
2019-01-21T09:16:37.438Z,81.7
2019-01-21T09:17:37.333Z,81.9
2019-01-21T09:18:37.215Z,81.9
2019-01-21T09:19:38.034Z,82
2019-01-21T09:20:37.952Z,82.2
2019-01-21T09:21:38.281Z,82.7
2019-01-21T09:22:38.176Z,82.7
2019-01-21T09:23:38.050Z,82.7
2019-01-21T09:24:37.959Z,82.8
2019-01-21T09:25:37.854Z,82.8
2019-01-21T09:26:37.750Z,82.9
2019-01-21T09:27:37.678Z,83
2019-01-21T09:28:37.563Z,83
2019-01-21T09:29:37.448Z,83.2
2019-01-21T09:30:37.337Z,83.2
2019-01-21T09:31:37.612Z,83.6
2019-01-21T09:32:37.535Z,83.5
2019-01-21T09:33:37.430Z,84.4
2019-01-21T09:34:38.681Z,83.8
2019-01-21T09:35:38.579Z,83.4
2019-01-21T09:36:38.465Z,83.5
2019-01-21T09:37:38.401Z,83.4
2019-01-21T09:38:38.296Z,83.5
2019-01-21T09:39:38.194Z,83.6
2019-01-21T09:40:38.090Z,83.6
2019-01-21T09:41:38.379Z,83.9
2019-01-21T09:42:38.249Z,83.9
2019-01-21T09:43:38.161Z,83.9
2019-01-21T09:44:38.064Z,83.9
2019-01-21T09:45:37.969Z,84.7
2019-01-21T09:46:37.846Z,84
2019-01-21T09:47:37.782Z,84.2
2019-01-21T09:48:37.694Z,84.2
2019-01-21T09:49:43.981Z,84.2
2019-01-21T09:50:43.908Z,84.1
2019-01-21T09:51:44.222Z,84.2
2019-01-21T09:52:44.104Z,84.3
2019-01-21T09:53:44.018Z,84.2
2019-01-21T09:54:43.917Z,84
2019-01-21T09:55:45.054Z,83.8
2019-01-21T09:56:44.959Z,83.5
2019-01-21T09:57:44.850Z,83.4
2019-01-21T09:58:44.783Z,83.3
2019-01-21T09:59:44.674Z,83.2
2019-01-21T10:00:44.543Z,83.1
2019-01-21T10:01:44.848Z,82.8
2019-01-21T10:02:44.750Z,82.9
2019-01-21T10:03:44.626Z,82.8
2019-01-21T10:04:44.533Z,82.9
2019-01-21T10:05:44.406Z,82.9
2019-01-21T10:06:44.299Z,83.2
2019-01-21T10:07:44.192Z,83
2019-01-21T10:08:44.083Z,83
2019-01-21T10:09:44.025Z,82.9
2019-01-21T10:10:43.909Z,82.8
2019-01-21T10:11:44.243Z,82.9
2019-01-21T10:12:44.126Z,82.5
2019-01-21T10:13:44.022Z,81.8
2019-01-21T10:18:42.886Z,79.8
2019-01-21T10:21:42.639Z,78.9
2019-01-21T10:22:42.508Z,79.4
2019-01-21T10:23:42.402Z,79.6
2019-01-21T10:24:42.300Z,79.3
2019-01-21T10:25:42.223Z,79.5
2019-01-21T10:26:42.102Z,79.4
2019-01-21T10:27:41.991Z,79.6
2019-01-21T10:28:42.332Z,79.7
2019-01-21T10:29:42.204Z,79.9
2019-01-21T10:30:42.112Z,79.9
2019-01-21T10:31:42.423Z,79.9
2019-01-21T10:32:42.298Z,80.3
2019-01-21T10:33:42.172Z,80.3
2019-01-21T10:34:42.036Z,80.4
2019-01-21T10:35:41.947Z,80.5
2019-01-21T10:36:41.844Z,80.5
2019-01-21T10:37:41.739Z,80.7
2019-01-21T10:38:41.634Z,80.8
2019-01-21T10:39:41.524Z,80.8
2019-01-21T10:40:41.412Z,80.6
2019-01-21T10:41:41.730Z,80.5
2019-01-21T10:42:41.646Z,80.8
2019-01-21T10:43:41.528Z,81
2019-01-21T10:44:41.430Z,81
2019-01-21T10:45:41.314Z,81.3
2019-01-21T10:46:41.216Z,81.4
2019-01-21T10:47:41.114Z,81.4
2019-01-21T10:48:41.012Z,81.4
2019-01-21T10:49:40.906Z,81.4
2019-01-21T10:50:40.806Z,81.4
2019-01-21T10:51:41.144Z,81.4
2019-01-21T10:52:41.035Z,81.5
2019-01-21T10:53:40.938Z,81.7
2019-01-21T10:54:40.817Z,81.6
2019-01-21T10:55:40.686Z,82
2019-01-21T10:56:40.586Z,82
2019-01-21T10:57:40.482Z,81.9
2019-01-21T10:58:40.384Z,82
2019-01-21T10:59:40.297Z,81.8
2019-01-21T11:00:40.196Z,81.8
2019-01-21T11:01:40.532Z,81.8
2019-01-21T11:02:40.408Z,81.7
2019-01-21T11:03:40.288Z,81.9
2019-01-21T11:04:40.170Z,81.7
2019-01-21T11:05:40.080Z,81.6
2019-01-21T11:06:39.972Z,81.6
2019-01-21T11:07:39.871Z,81.8
2019-01-21T11:08:39.756Z,81.9
2019-01-21T11:09:39.639Z,81.9
2019-01-21T11:10:39.555Z,81.9
2019-01-21T11:11:39.879Z,82
2019-01-21T11:12:39.768Z,81.9
2019-01-21T11:13:39.657Z,81.8
2019-01-21T11:14:39.540Z,81.8
2019-01-21T11:15:39.426Z,81.9
2019-01-21T11:16:39.304Z,81.9
2019-01-21T11:17:39.233Z,81.8
2019-01-21T11:18:39.155Z,81.5
2019-01-21T11:19:39.043Z,81.3
2019-01-21T11:20:38.926Z,81.6
2019-01-21T11:21:39.211Z,81.9
2019-01-21T11:22:39.097Z,81.7
2019-01-21T11:23:39.023Z,81.6
2019-01-21T11:24:38.900Z,81.4
2019-01-21T11:25:38.793Z,81.5
2019-01-21T11:26:38.714Z,81.3
2019-01-21T11:27:38.590Z,81.2
2019-01-21T11:28:38.518Z,81.1
2019-01-21T11:29:38.413Z,81.1
2019-01-21T11:30:38.303Z,81.9
2019-01-21T11:31:38.600Z,81.2
2019-01-21T11:32:38.481Z,81.1
2019-01-21T11:33:38.387Z,81.1
2019-01-21T11:34:38.299Z,81
2019-01-21T11:35:38.184Z,81
2019-01-21T11:36:38.059Z,80.9
2019-01-21T11:37:37.930Z,80.9
2019-01-21T11:38:37.826Z,82.7
2019-01-21T11:39:37.720Z,81.4
2019-01-21T11:40:37.623Z,80.9
2019-01-21T11:41:37.941Z,80.9
2019-01-21T11:42:37.885Z,81
2019-01-21T11:43:37.788Z,80.9
2019-01-21T11:47:36.859Z,78.7
2019-01-21T11:51:36.430Z,77.8
2019-01-21T11:52:36.377Z,78.5
2019-01-21T11:53:36.281Z,78.7
2019-01-21T11:54:36.188Z,78.7
2019-01-21T11:55:36.083Z,78.6
2019-01-21T11:56:35.987Z,78.9
2019-01-21T11:57:35.859Z,78.9
2019-01-21T11:58:35.725Z,78.9
2019-01-21T11:59:35.624Z,79
2019-01-21T12:00:35.541Z,78.9
2019-01-21T12:01:35.861Z,79.1
2019-01-21T12:02:35.747Z,79.2
2019-01-21T12:03:35.635Z,79.2
2019-01-21T12:04:35.531Z,79.3
2019-01-21T12:05:35.443Z,79.4
2019-01-21T12:06:35.342Z,79.5
2019-01-21T12:07:35.235Z,79.2
2019-01-21T12:08:35.117Z,79.2
2019-01-21T12:09:35.006Z,79.3
2019-01-21T12:10:34.901Z,79.1
2019-01-21T12:11:36.087Z,79.2
2019-01-21T12:12:35.967Z,79.5
2019-01-21T12:13:35.841Z,79.2
2019-01-21T12:14:35.741Z,79.3
2019-01-21T12:15:35.635Z,79.4
2019-01-21T12:16:35.544Z,79.6
2019-01-21T12:17:35.418Z,79.7
2019-01-21T12:18:35.311Z,79.9
2019-01-21T12:19:35.214Z,79.9
2019-01-21T12:20:35.101Z,80
2019-01-21T12:21:35.441Z,80.3
2019-01-21T12:22:35.329Z,80.3
2019-01-21T12:23:35.226Z,80.3
2019-01-21T12:24:35.133Z,80.1
2019-01-21T12:25:35.049Z,80.1
2019-01-21T12:26:34.929Z,79.9
2019-01-21T12:27:34.837Z,80
2019-01-21T12:28:34.723Z,79.9
2019-01-21T12:29:34.610Z,79.7
2019-01-21T12:30:34.505Z,79.7
2019-01-21T12:31:34.825Z,79.8
2019-01-21T12:32:34.751Z,79.8
2019-01-21T12:33:34.641Z,79.8
2019-01-21T12:34:34.534Z,79.8
2019-01-21T12:35:34.462Z,79.8
2019-01-21T12:36:34.356Z,79.7
2019-01-21T12:37:34.235Z,79.7
2019-01-21T12:38:34.150Z,79.8
2019-01-21T12:39:34.045Z,79.8
2019-01-21T12:40:33.963Z,79.6
2019-01-21T12:41:34.321Z,79.7
2019-01-21T12:42:34.199Z,79.2
2019-01-21T12:43:34.083Z,78.9
2019-01-21T12:44:33.978Z,79.4
2019-01-21T12:45:33.865Z,78.3
2019-01-21T12:46:33.813Z,77.8
2019-01-21T12:47:33.711Z,77.3
2019-01-21T12:48:33.581Z,77.1
2019-01-21T12:50:33.206Z,76.7
2019-01-21T12:51:33.507Z,76.6
2019-01-21T12:52:33.409Z,77.4
2019-01-21T12:53:33.306Z,77.2
2019-01-21T12:54:33.205Z,76.9
2019-01-21T12:55:33.099Z,77
2019-01-21T12:56:32.964Z,77.1
2019-01-21T12:57:32.857Z,77.5
2019-01-21T12:58:32.738Z,77.9
2019-01-21T12:59:32.632Z,77.9
2019-01-21T13:00:32.537Z,77.6
2019-01-21T13:01:32.841Z,77.6
2019-01-21T13:02:32.725Z,77.6
2019-01-21T13:03:32.599Z,77.7
2019-01-21T13:04:32.491Z,77.6
2019-01-21T13:05:32.383Z,77.6
2019-01-21T13:06:32.285Z,77.8
2019-01-21T13:07:32.185Z,78.4
2019-01-21T13:08:32.067Z,77.8
2019-01-21T13:09:31.951Z,77.6
2019-01-21T13:10:31.829Z,77.7
2019-01-21T13:11:32.157Z,77.8
2019-01-21T13:12:32.067Z,77.8
2019-01-21T13:13:31.945Z,77.8
2019-01-21T13:14:31.820Z,77.8
2019-01-21T13:15:31.729Z,77.9
2019-01-21T13:16:31.635Z,78
2019-01-21T13:17:31.516Z,78
2019-01-21T13:18:31.402Z,78.1
2019-01-21T13:19:31.301Z,78
2019-01-21T13:20:31.520Z,78.2
2019-01-21T13:21:35.362Z,78.2
2019-01-21T13:22:35.253Z,78.1
2019-01-21T13:23:35.191Z,78
2019-01-21T13:24:35.087Z,77.9
2019-01-21T13:25:34.972Z,77.1
2019-01-21T13:26:34.883Z,76.7
2019-01-21T13:27:34.795Z,76.5
2019-01-21T13:30:34.140Z,75
2019-01-21T13:31:34.437Z,75.1
2019-01-21T13:32:34.357Z,75.6
2019-01-21T13:33:34.238Z,75.6
2019-01-21T13:34:34.123Z,75.3
2019-01-21T13:35:34.017Z,75
2019-01-21T13:36:33.931Z,74.9
2019-01-21T13:37:33.839Z,75.2
2019-01-21T13:38:33.729Z,75.3
2019-01-21T13:39:33.619Z,75.4
2019-01-21T13:40:33.509Z,75.6
2019-01-21T13:41:34.877Z,75.7
2019-01-21T13:42:34.792Z,76.1
2019-01-21T13:43:34.676Z,76.3
2019-01-21T13:44:34.579Z,76.7
2019-01-21T13:45:34.459Z,76.6
2019-01-21T13:46:34.371Z,76.7
2019-01-21T13:47:34.280Z,76.7
2019-01-21T13:48:34.189Z,77.4
2019-01-21T13:49:34.083Z,76.9
2019-01-21T13:50:37.867Z,76.9
2019-01-21T13:51:38.223Z,77
2019-01-21T13:52:38.115Z,77.3
2019-01-21T13:53:38.023Z,77.5
2019-01-21T13:54:37.913Z,77.6
2019-01-21T13:55:37.809Z,77.6
2019-01-21T13:56:37.712Z,77.6
2019-01-21T13:57:37.591Z,77.9
2019-01-21T13:58:37.539Z,77.9
2019-01-21T13:59:37.442Z,78.1
2019-01-21T14:00:37.355Z,78.3
2019-01-21T14:01:37.675Z,78.6
2019-01-21T14:02:37.572Z,78.4
2019-01-21T14:03:38.248Z,78.7
2019-01-21T14:04:38.159Z,78.7
2019-01-21T14:05:38.068Z,78.5
2019-01-21T14:06:37.972Z,78.2
2019-01-21T14:07:37.843Z,78.1
2019-01-21T14:08:37.727Z,78.2
2019-01-21T14:09:37.681Z,78.2
2019-01-21T14:10:37.595Z,78.2
2019-01-21T14:11:37.931Z,78.3
2019-01-21T14:12:37.809Z,78.3
2019-01-21T14:13:37.689Z,78.6
2019-01-21T14:15:37.313Z,77.2
2019-01-21T14:17:36.926Z,76.2
2019-01-21T14:18:36.816Z,75.8
2019-01-21T14:19:36.713Z,75.6
2019-01-21T14:21:39.375Z,75.4
2019-01-21T14:22:39.261Z,76.7
2019-01-21T14:23:39.153Z,76.1
2019-01-21T14:24:39.047Z,76.2
2019-01-21T14:25:38.971Z,76.1
2019-01-21T14:26:38.861Z,76.1
2019-01-21T14:27:38.748Z,76
2019-01-21T14:28:38.638Z,75.8
2019-01-21T14:29:38.547Z,76
2019-01-21T14:30:38.423Z,76.3
2019-01-21T14:31:38.743Z,76.4
2019-01-21T14:32:38.627Z,76.3
2019-01-21T14:33:38.513Z,76.7
2019-01-21T14:34:38.397Z,76.9
2019-01-21T14:35:38.274Z,77.8
2019-01-21T14:36:38.192Z,77.1
2019-01-21T14:37:38.089Z,77
2019-01-21T14:38:37.978Z,77.1
2019-01-21T14:39:37.876Z,77.2
2019-01-21T14:40:37.764Z,77
2019-01-21T14:41:38.079Z,77
2019-01-21T14:42:37.996Z,76.9
2019-01-21T14:43:37.914Z,77.1
2019-01-21T14:44:37.807Z,77.1
2019-01-21T14:45:37.710Z,76.4
2019-01-21T14:46:37.636Z,76.3
2019-01-21T14:47:37.598Z,75.9
2019-01-21T14:48:37.614Z,75.5
2019-01-21T14:49:37.628Z,74.9
2019-01-21T14:50:37.538Z,74.9
2019-01-21T14:51:37.871Z,74.8
2019-01-21T14:53:37.629Z,74.3
2019-01-21T14:55:37.407Z,74
2019-01-21T14:56:37.345Z,74
2019-01-21T14:58:37.172Z,73.9
2019-01-21T14:59:37.201Z,73.8
2019-01-21T15:00:37.246Z,73.8
2019-01-21T15:01:37.800Z,73.8
2019-01-21T15:02:37.883Z,74.4
2019-01-21T15:03:37.920Z,74.6
2019-01-21T15:04:37.897Z,74.4
2019-01-21T15:05:37.988Z,74.3
2019-01-21T15:06:38.110Z,74.3
2019-01-21T15:07:38.240Z,74.4
2019-01-21T15:08:38.357Z,74.5
2019-01-21T15:09:38.455Z,74.7
2019-01-21T15:10:38.599Z,75
2019-01-21T15:11:39.565Z,74.9
2019-01-21T15:12:39.724Z,75.1
2019-01-21T15:13:39.890Z,75.2
2019-01-21T15:14:40.007Z,74.4
2019-01-21T15:15:41.882Z,74.8
2019-01-21T15:16:41.995Z,74.7
2019-01-21T15:17:42.110Z,74.9
2019-01-21T15:18:42.367Z,74.7